createdAt,value
2022-07-25T00:01:01.624Z,2.97
2022-07-25T00:02:24.314Z,2.39
2022-07-25T00:03:45.655Z,2.68
2022-07-25T00:05:07.302Z,2.73
2022-07-25T00:06:29.582Z,2.89
2022-07-25T00:07:51.133Z,2.92
2022-07-25T00:09:12.465Z,2.94
2022-07-25T00:10:35.065Z,3.58
2022-07-25T00:11:56.511Z,3.69
2022-07-25T00:13:18.023Z,3.98
2022-07-25T00:14:39.520Z,5.38
2022-07-25T00:16:01.106Z,7.63
2022-07-25T00:17:22.708Z,7.53
2022-07-25T00:18:44.123Z,8.08
2022-07-25T00:20:06.552Z,10.03
2022-07-25T00:21:28.435Z,5.94
2022-07-25T00:22:51.272Z,3.78
2022-07-25T00:24:12.389Z,3.43
2022-07-25T00:25:33.484Z,5.23
2022-07-25T00:26:54.972Z,3.12
2022-07-25T00:28:17.152Z,3.63
2022-07-25T00:29:38.568Z,4.17
2022-07-25T00:31:02.891Z,3.56
2022-07-25T00:32:24.422Z,3.40
2022-07-25T00:33:45.594Z,2.95
2022-07-25T00:35:07.924Z,3.44
2022-07-25T00:36:29.796Z,3.44
2022-07-25T00:37:51.394Z,3.58
2022-07-25T00:39:12.734Z,2.44
2022-07-25T00:40:34.752Z,3.03
2022-07-25T00:41:56.920Z,2.42
2022-07-25T00:43:18.069Z,3.28
2022-07-25T00:44:39.542Z,3.11
2022-07-25T00:46:01.050Z,3.18
2022-07-25T00:47:23.293Z,2.06
2022-07-25T00:48:44.658Z,4.06
2022-07-25T00:50:07.618Z,5.42
2022-07-25T00:52:50.069Z,3.03
2022-07-25T00:54:12.216Z,2.68
2022-07-25T00:55:33.617Z,4.18
2022-07-25T00:56:55.815Z,3.56
2022-07-25T00:58:17.194Z,3.26
2022-07-25T00:59:38.593Z,4.08
2022-07-25T01:01:00.454Z,3.15
2022-07-25T01:02:21.787Z,3.51
2022-07-25T01:03:43.085Z,3.88
2022-07-25T01:05:05.482Z,2.91
2022-07-25T01:06:28.553Z,3.34
2022-07-25T01:07:49.842Z,5.49
2022-07-25T01:09:11.575Z,3.99
2022-07-25T01:10:33.860Z,4.10
2022-07-25T01:11:55.298Z,4.53
2022-07-25T01:13:16.629Z,3.36
2022-07-25T01:14:38.319Z,2.37
2022-07-25T01:16:54.315Z,3.89
2022-07-25T01:18:17.601Z,2.06
2022-07-25T01:19:39.156Z,3.06
2022-07-25T01:21:01.056Z,3.31
2022-07-25T01:22:22.903Z,4.20
2022-07-25T01:23:44.059Z,3.31
2022-07-25T01:25:05.929Z,2.89
2022-07-25T01:26:27.871Z,2.75
2022-07-25T01:27:54.792Z,3.87
2022-07-25T01:29:12.715Z,3.31
2022-07-25T01:30:35.361Z,3.19
2022-07-25T01:31:56.998Z,3.38
2022-07-25T01:33:19.140Z,2.83
2022-07-25T01:34:40.346Z,3.17
2022-07-25T01:36:01.993Z,3.74
2022-07-25T01:37:23.533Z,2.56
2022-07-25T01:38:44.927Z,2.93
2022-07-25T01:40:07.281Z,2.64
2022-07-25T01:41:28.511Z,4.46
2022-07-25T01:42:50.194Z,3.17
2022-07-25T01:44:11.520Z,3.03
2022-07-25T01:45:32.985Z,3.93
2022-07-25T01:46:54.404Z,3.66
2022-07-25T01:48:15.695Z,4.02
2022-07-25T01:49:38.461Z,3.49
2022-07-25T01:51:00.062Z,2.62
2022-07-25T01:52:21.699Z,3.91
2022-07-25T01:53:43.458Z,3.37
2022-07-25T01:55:07.206Z,3.36
2022-07-25T01:56:28.928Z,3.76
2022-07-25T01:57:52.025Z,3.52
2022-07-25T01:59:13.613Z,3.57
2022-07-25T02:00:36.802Z,2.91
2022-07-25T02:01:58.477Z,3.72
2022-07-25T02:03:19.776Z,3.56
2022-07-25T02:04:41.512Z,3.31
2022-07-25T02:06:05.789Z,2.93
2022-07-25T02:07:26.960Z,3.23
2022-07-25T02:08:48.252Z,1.91
2022-07-25T02:10:10.109Z,2.99
2022-07-25T02:11:31.474Z,3.43
2022-07-25T02:12:52.923Z,3.27
2022-07-25T02:14:14.226Z,2.54
2022-07-25T02:15:35.988Z,5.96
2022-07-25T02:16:57.876Z,3.07
2022-07-25T02:18:19.111Z,3.27
2022-07-25T02:19:40.549Z,5.82
2022-07-25T02:21:02.443Z,3.55
2022-07-25T02:22:24.238Z,3.58
2022-07-25T02:23:45.405Z,3.50
2022-07-25T02:25:07.363Z,4.82
2022-07-25T02:26:29.350Z,2.08
2022-07-25T02:27:50.750Z,3.74
2022-07-25T02:29:12.054Z,3.47
2022-07-25T02:30:34.822Z,3.28
2022-07-25T02:31:56.181Z,2.80
2022-07-25T02:33:17.936Z,2.84
2022-07-25T02:34:39.441Z,3.36
2022-07-25T02:36:01.095Z,2.42
2022-07-25T02:37:22.489Z,2.66
2022-07-25T02:38:43.991Z,4.28
2022-07-25T02:40:07.146Z,3.13
2022-07-25T02:41:28.448Z,4.31
2022-07-25T02:42:49.831Z,3.12
2022-07-25T02:44:11.112Z,2.19
2022-07-25T02:45:32.526Z,2.46
2022-07-25T02:46:56.278Z,2.93
2022-07-25T02:48:17.374Z,2.47
2022-07-25T02:49:38.699Z,2.25
2022-07-25T02:51:00.114Z,3.42
2022-07-25T02:52:21.303Z,2.87
2022-07-25T02:53:59.044Z,3.91
2022-07-25T02:55:09.740Z,2.18
2022-07-25T02:56:32.074Z,6.29
2022-07-25T02:57:53.539Z,2.49
2022-07-25T02:59:14.815Z,3.24
2022-07-25T03:00:36.601Z,3.06
2022-07-25T03:01:57.835Z,3.11
2022-07-25T03:03:20.040Z,3.33
2022-07-25T03:04:42.251Z,3.35
2022-07-25T03:06:04.287Z,3.22
2022-07-25T03:07:25.642Z,2.69
2022-07-25T03:08:46.695Z,2.94
2022-07-25T03:10:11.422Z,2.50
2022-07-25T03:11:32.411Z,2.63
2022-07-25T03:12:53.865Z,5.19
2022-07-25T03:14:15.603Z,3.26
2022-07-25T03:15:37.075Z,4.71
2022-07-25T03:16:58.657Z,3.86
2022-07-25T03:18:20.373Z,3.69
2022-07-25T03:19:41.933Z,4.47
2022-07-25T03:21:04.086Z,3.68
2022-07-25T03:22:25.320Z,3.13
2022-07-25T03:23:51.996Z,6.64
2022-07-25T03:25:15.361Z,4.29
2022-07-25T03:26:34.190Z,3.11
2022-07-25T03:27:55.596Z,3.76
2022-07-25T03:29:17.016Z,3.64
2022-07-25T03:30:38.865Z,3.42
2022-07-25T03:32:00.109Z,3.44
2022-07-25T03:33:21.647Z,3.39
2022-07-25T03:34:43.129Z,4.05
2022-07-25T03:36:05.647Z,1.85
2022-07-25T03:37:26.900Z,3.76
2022-07-25T03:38:48.268Z,4.31
2022-07-25T03:40:11.545Z,4.24
2022-07-25T03:41:33.044Z,3.61
2022-07-25T03:44:04.442Z,2.23
2022-07-25T03:45:27.785Z,3.99
2022-07-25T03:46:49.811Z,5.73
2022-07-25T03:48:11.114Z,5.80
2022-07-25T03:49:32.526Z,4.53
2022-07-25T03:50:55.895Z,4.05
2022-07-25T03:52:16.955Z,4.55
2022-07-25T03:53:38.247Z,5.77
2022-07-25T03:54:59.694Z,5.22
2022-07-25T03:56:22.841Z,5.61
2022-07-25T03:57:43.882Z,5.47
2022-07-25T03:59:06.326Z,3.54
2022-07-25T04:00:28.500Z,3.72
2022-07-25T04:01:50.088Z,4.68
2022-07-25T04:03:14.148Z,7.14
2022-07-25T04:04:35.512Z,6.63
2022-07-25T04:05:56.950Z,6.37
2022-07-25T04:07:19.319Z,6.57
2022-07-25T04:08:40.944Z,8.16
2022-07-25T04:10:03.507Z,6.59
2022-07-25T04:11:24.910Z,6.52
2022-07-25T04:12:46.909Z,6.81
2022-07-25T04:14:08.762Z,4.82
2022-07-25T04:15:30.314Z,6.53
2022-07-25T04:16:52.879Z,6.05
2022-07-25T04:18:20.884Z,5.17
2022-07-25T04:19:37.989Z,6.28
2022-07-25T04:20:59.838Z,7.58
2022-07-25T04:22:22.096Z,5.28
2022-07-25T04:23:43.517Z,9.64
2022-07-25T04:25:05.574Z,5.65
2022-07-25T04:26:29.896Z,8.71
2022-07-25T04:27:51.371Z,6.58
2022-07-25T04:29:13.458Z,4.19
2022-07-25T04:30:35.064Z,4.46
2022-07-25T04:31:56.295Z,5.13
2022-07-25T04:33:17.994Z,6.26
2022-07-25T04:34:39.539Z,7.28
2022-07-25T04:36:01.120Z,8.27
2022-07-25T04:37:22.626Z,5.11
2022-07-25T04:38:44.373Z,5.86
2022-07-25T04:40:08.185Z,12.21
2022-07-25T04:41:29.977Z,6.47
2022-07-25T04:44:10.884Z,9.46
2022-07-25T04:45:32.536Z,7.22
2022-07-25T04:46:54.064Z,12.53
2022-07-25T04:48:16.053Z,8.82
2022-07-25T04:49:37.465Z,8.63
2022-07-25T04:50:59.869Z,6.66
2022-07-25T04:52:21.435Z,7.56
2022-07-25T04:53:44.059Z,8.17
2022-07-25T04:55:06.371Z,6.47
2022-07-25T04:56:28.369Z,11.64
2022-07-25T04:57:50.919Z,7.41
2022-07-25T04:59:12.426Z,4.76
2022-07-25T05:00:37.088Z,8.46
2022-07-25T05:01:58.475Z,8.16
2022-07-25T05:03:19.666Z,6.31
2022-07-25T05:04:45.218Z,7.22
2022-07-25T05:06:04.360Z,8.83
2022-07-25T05:07:28.219Z,6.02
2022-07-25T05:08:50.009Z,5.74
2022-07-25T05:10:12.109Z,7.09
2022-07-25T05:11:33.544Z,6.79
2022-07-25T05:12:55.471Z,6.69
2022-07-25T05:14:19.191Z,6.59
2022-07-25T05:16:56.853Z,7.08
2022-07-25T05:18:18.310Z,5.67
2022-07-25T05:19:42.453Z,8.93
2022-07-25T05:21:04.922Z,5.94
2022-07-25T05:22:28.522Z,6.43
2022-07-25T05:23:49.863Z,9.04
2022-07-25T05:25:11.506Z,8.39
2022-07-25T05:26:33.451Z,6.06
2022-07-25T05:27:56.061Z,7.44
2022-07-25T05:29:17.597Z,7.80
2022-07-25T05:30:40.230Z,8.23
2022-07-25T05:32:01.808Z,11.40
2022-07-25T05:33:23.913Z,5.13
2022-07-25T05:34:45.817Z,8.19
2022-07-25T05:36:08.095Z,10.08
2022-07-25T05:37:29.492Z,10.72
2022-07-25T05:38:51.550Z,6.35
2022-07-25T05:40:13.643Z,6.88
2022-07-25T05:41:35.371Z,11.79
2022-07-25T05:44:09.865Z,8.08
2022-07-25T05:45:31.688Z,9.59
2022-07-25T05:46:53.357Z,7.39
2022-07-25T05:48:14.944Z,8.34
2022-07-25T05:49:37.759Z,7.42
2022-07-25T05:50:59.940Z,10.14
2022-07-25T05:52:21.444Z,10.96
2022-07-25T05:53:42.898Z,10.98
2022-07-25T05:55:04.898Z,6.46
2022-07-25T05:56:27.534Z,9.10
2022-07-25T05:57:49.148Z,9.11
2022-07-25T05:59:10.500Z,6.07
2022-07-25T06:00:34.262Z,7.29
2022-07-25T06:01:56.799Z,8.74
2022-07-25T06:03:19.315Z,8.29
2022-07-25T06:04:40.805Z,5.48
2022-07-25T06:06:02.204Z,7.66
2022-07-25T06:07:23.812Z,9.45
2022-07-25T06:08:45.371Z,4.69
2022-07-25T06:11:19.078Z,11.99
2022-07-25T06:12:42.939Z,6.06
2022-07-25T06:14:04.969Z,8.35
2022-07-25T06:15:28.627Z,6.15
2022-07-25T06:16:50.329Z,4.93
2022-07-25T06:18:13.437Z,8.25
2022-07-25T06:19:40.876Z,7.01
2022-07-25T06:21:02.697Z,5.00
2022-07-25T06:22:25.393Z,7.24
2022-07-25T06:23:46.790Z,8.67
2022-07-25T06:25:09.157Z,10.82
2022-07-25T06:26:32.332Z,7.88
2022-07-25T06:27:53.516Z,4.92
2022-07-25T06:29:17.227Z,5.79
2022-07-25T06:30:38.821Z,7.18
2022-07-25T06:32:00.984Z,9.72
2022-07-25T06:33:22.550Z,4.55
2022-07-25T06:34:45.329Z,7.41
2022-07-25T06:36:07.306Z,9.01
2022-07-25T06:37:28.648Z,10.05
2022-07-25T06:38:49.747Z,8.99
2022-07-25T06:40:12.034Z,7.87
2022-07-25T06:41:33.704Z,5.23
2022-07-25T06:42:55.359Z,6.69
2022-07-25T06:44:16.686Z,5.34
2022-07-25T06:45:38.101Z,5.21
2022-07-25T06:47:00.750Z,4.31
2022-07-25T06:48:23.351Z,3.82
2022-07-25T06:49:44.923Z,5.97
2022-07-25T06:51:06.570Z,5.96
2022-07-25T06:52:27.652Z,6.11
2022-07-25T06:53:49.207Z,5.54
2022-07-25T06:55:16.109Z,5.29
2022-07-25T06:56:39.340Z,5.73
2022-07-25T06:58:00.363Z,5.97
2022-07-25T06:59:21.700Z,3.04
2022-07-25T07:00:43.162Z,3.17
2022-07-25T07:02:04.412Z,5.01
2022-07-25T07:03:25.990Z,5.89
2022-07-25T07:04:47.597Z,6.17
2022-07-25T07:06:09.446Z,5.46
2022-07-25T07:07:31.069Z,5.07
2022-07-25T07:08:52.330Z,5.02
2022-07-25T07:10:13.829Z,4.49
2022-07-25T07:12:44.703Z,4.44
2022-07-25T07:14:06.861Z,4.56
2022-07-25T07:15:29.061Z,6.13
2022-07-25T07:16:56.778Z,6.93
2022-07-25T07:18:19.165Z,8.17
2022-07-25T07:19:41.409Z,9.06
2022-07-25T07:21:04.854Z,4.97
2022-07-25T07:22:27.551Z,4.58
2022-07-25T07:25:03.405Z,4.06
2022-07-25T07:26:30.864Z,6.04
2022-07-25T07:27:52.764Z,3.37
2022-07-25T07:29:14.082Z,5.36
2022-07-25T07:31:05.814Z,8.00
2022-07-25T07:31:59.040Z,5.38
2022-07-25T07:33:20.279Z,10.32
2022-07-25T07:34:41.752Z,7.16
2022-07-25T07:36:03.563Z,5.47
2022-07-25T07:37:24.766Z,3.38
2022-07-25T07:38:47.750Z,4.65
2022-07-25T07:41:27.996Z,7.81
2022-07-25T07:42:53.787Z,10.77
2022-07-25T07:44:17.082Z,5.43
2022-07-25T07:45:38.743Z,7.31
2022-07-25T07:47:02.543Z,10.11
2022-07-25T07:48:24.055Z,7.04
2022-07-25T07:49:50.409Z,6.81
2022-07-25T07:51:11.698Z,6.78
2022-07-25T07:52:33.358Z,6.45
2022-07-25T07:53:54.753Z,8.62
2022-07-25T07:55:16.692Z,6.67
2022-07-25T07:56:38.663Z,6.66
2022-07-25T07:58:00.221Z,5.19
2022-07-25T07:59:23.551Z,12.02
2022-07-25T08:00:46.914Z,4.56
2022-07-25T08:02:08.984Z,5.53
2022-07-25T08:03:32.107Z,5.90
2022-07-25T08:06:16.511Z,4.19
2022-07-25T08:07:38.177Z,6.98
2022-07-25T08:08:59.971Z,5.62
2022-07-25T08:10:23.797Z,7.22
2022-07-25T08:11:45.618Z,7.67
2022-07-25T08:13:16.186Z,10.52
2022-07-25T08:14:37.370Z,7.39
2022-07-25T08:16:00.360Z,7.53
2022-07-25T08:17:28.100Z,9.21
2022-07-25T08:18:48.296Z,6.09
2022-07-25T08:20:36.436Z,9.11
2022-07-25T08:23:01.131Z,12.82
2022-07-25T08:25:42.032Z,6.34
2022-07-25T08:27:03.985Z,9.99
2022-07-25T08:28:25.925Z,8.01
2022-07-25T08:29:49.087Z,8.76
2022-07-25T08:31:10.594Z,6.03
2022-07-25T08:32:33.222Z,8.82
2022-07-25T08:33:54.834Z,5.81
2022-07-25T09:06:31.845Z,5.04
2022-07-25T09:32:27.487Z,5.29
2022-07-25T09:35:39.564Z,4.98
2022-07-25T09:49:11.729Z,5.31
2022-07-25T10:10:07.532Z,5.74
2022-07-25T10:30:56.724Z,5.72
2022-07-25T11:29:42.480Z,3.30
2022-07-25T11:51:18.705Z,2.80
2022-07-25T14:30:00.697Z,2.41
2022-07-25T14:53:11.842Z,4.07
2022-07-25T14:54:33.829Z,7.07
2022-07-25T14:55:57.710Z,3.94
2022-07-25T14:57:19.674Z,5.22
2022-07-25T14:58:47.330Z,5.37
2022-07-25T15:00:11.181Z,6.16
2022-07-25T15:01:39.869Z,4.18
2022-07-25T15:03:17.603Z,5.83
2022-07-25T15:04:48.507Z,4.89
2022-07-25T15:06:16.307Z,4.73
2022-07-25T15:07:45.545Z,5.80
2022-07-25T15:09:10.004Z,4.21
2022-07-25T15:10:38.663Z,4.21
2022-07-25T15:12:02.436Z,5.16
2022-07-25T15:13:31.842Z,3.42
2022-07-25T15:14:52.558Z,5.88
2022-07-25T15:16:15.639Z,4.67
2022-07-25T15:17:39.157Z,7.48
2022-07-25T15:19:17.604Z,2.53
2022-07-25T15:20:30.357Z,5.36
2022-07-25T15:21:52.201Z,5.32
2022-07-25T15:23:14.678Z,3.80
2022-07-25T15:24:57.641Z,4.54
2022-07-25T15:26:03.302Z,6.07
2022-07-25T15:27:24.980Z,4.41
2022-07-25T15:28:46.606Z,5.29
2022-07-25T15:30:09.471Z,7.73
2022-07-25T15:31:31.049Z,4.45
2022-07-25T15:32:54.901Z,5.52
2022-07-25T15:34:16.367Z,4.52
2022-07-25T15:35:37.562Z,6.07
2022-07-25T15:36:59.669Z,4.73
2022-07-25T15:38:23.024Z,4.63
2022-07-25T15:39:49.247Z,7.44
2022-07-25T15:41:14.236Z,3.21
2022-07-25T15:42:37.239Z,4.59
2022-07-25T15:43:58.822Z,3.39
2022-07-25T15:45:38.264Z,2.87
2022-07-25T15:46:47.361Z,3.55
2022-07-25T15:48:12.262Z,5.31
2022-07-25T15:49:36.687Z,4.78
2022-07-25T15:50:59.489Z,5.43
2022-07-25T15:52:21.143Z,5.38
2022-07-25T16:11:49.122Z,5.82
2022-07-25T16:13:14.143Z,5.13
2022-07-25T16:14:38.588Z,6.76
2022-07-25T16:16:00.171Z,5.74
2022-07-25T16:17:21.591Z,5.32
2022-07-25T16:18:46.588Z,4.67
2022-07-25T16:20:09.594Z,6.30
2022-07-25T16:33:16.123Z,4.20
2022-07-25T16:36:02.844Z,6.23
2022-07-25T16:37:26.801Z,4.90
2022-07-25T16:38:50.025Z,3.26
2022-07-25T16:40:14.552Z,7.93
2022-07-25T16:41:35.764Z,5.22
2022-07-25T16:42:57.729Z,5.62
2022-07-25T16:44:22.139Z,3.91
2022-07-25T16:45:44.476Z,4.34
2022-07-25T16:47:06.568Z,4.66
2022-07-25T16:48:28.336Z,9.26
2022-07-25T16:49:49.945Z,6.94
2022-07-25T16:51:11.552Z,12.54
2022-07-25T16:52:34.243Z,5.45
2022-07-25T16:53:57.354Z,7.91
2022-07-25T16:55:21.265Z,6.84
2022-07-25T16:56:42.651Z,5.08
2022-07-25T16:58:05.944Z,6.98
2022-07-25T16:59:27.474Z,5.43
2022-07-25T17:00:48.856Z,6.67
2022-07-25T17:02:10.204Z,4.26
2022-07-25T17:03:31.919Z,5.05
2022-07-25T17:04:53.432Z,5.88
2022-07-25T17:06:16.301Z,8.29
2022-07-25T17:07:38.643Z,4.96
2022-07-25T17:09:01.980Z,10.44
2022-07-25T17:10:28.070Z,7.04
2022-07-25T17:11:54.251Z,6.33
2022-07-25T17:13:15.697Z,7.22
2022-07-25T17:14:37.218Z,5.66
2022-07-25T17:15:59.990Z,5.01
2022-07-25T17:17:21.526Z,5.87
2022-07-25T17:18:42.821Z,6.56
2022-07-25T17:20:04.772Z,9.82
2022-07-25T17:21:27.300Z,8.24
2022-07-25T17:22:50.783Z,4.43
2022-07-25T17:25:34.000Z,6.29
2022-07-25T17:26:55.843Z,16.20
2022-07-25T17:28:17.407Z,24.34
2022-07-25T17:29:40.103Z,26.13
2022-07-25T17:31:03.603Z,12.49
2022-07-25T17:32:29.690Z,8.83
2022-07-25T17:33:49.333Z,5.76
2022-07-25T17:35:11.816Z,7.30
2022-07-25T17:36:34.392Z,7.94
2022-07-25T17:37:56.515Z,6.45
2022-07-25T17:39:17.787Z,5.90
2022-07-25T17:40:40.553Z,5.70
2022-07-25T17:42:05.165Z,4.93
2022-07-25T17:43:28.802Z,6.98
2022-07-25T17:44:51.038Z,11.32
2022-07-25T17:46:13.317Z,6.38
2022-07-25T17:47:35.493Z,6.98
2022-07-25T17:48:57.255Z,5.79
2022-07-25T17:50:28.699Z,6.99
2022-07-25T17:51:47.920Z,10.50
2022-07-25T17:53:09.288Z,8.54
2022-07-25T17:54:30.832Z,9.22
2022-07-25T17:55:52.802Z,9.86
2022-07-25T17:57:15.145Z,8.90
2022-07-25T18:00:03.249Z,10.50
2022-07-25T18:01:26.587Z,13.98
2022-07-25T18:02:49.205Z,10.23
2022-07-25T18:04:11.249Z,12.05
2022-07-25T18:05:33.023Z,9.82
2022-07-25T18:18:58.424Z,9.49
2022-07-25T18:21:40.657Z,4.77
2022-07-25T18:23:02.241Z,7.67
2022-07-25T18:24:29.325Z,6.20
2022-07-25T18:25:49.330Z,5.67
2022-07-25T18:27:10.514Z,7.12
2022-07-25T18:28:32.196Z,11.56
2022-07-25T18:29:53.887Z,10.54
2022-07-25T18:31:15.143Z,8.77
2022-07-25T18:32:38.087Z,10.06
2022-07-25T18:33:59.695Z,9.84
2022-07-25T18:35:22.018Z,13.08
2022-07-25T18:36:45.187Z,7.55
2022-07-25T18:39:27.899Z,6.79
2022-07-25T18:41:06.488Z,9.28
2022-07-25T18:42:13.635Z,8.23
2022-07-25T18:43:35.156Z,8.90
2022-07-25T18:44:57.689Z,8.96
2022-07-25T18:46:20.192Z,9.94
2022-07-25T18:47:43.180Z,8.97
2022-07-25T19:07:10.095Z,13.80
2022-07-25T19:09:50.889Z,9.15
2022-07-25T19:12:54.113Z,13.08
2022-07-25T19:14:16.961Z,11.22
2022-07-25T19:17:01.206Z,17.20
2022-07-25T19:18:26.327Z,15.03
2022-07-25T19:19:46.439Z,18.58
2022-07-25T19:21:08.023Z,13.87
2022-07-25T19:22:29.479Z,9.63
2022-07-25T19:23:51.581Z,11.09
2022-07-25T19:25:13.193Z,17.03
2022-07-25T19:26:34.735Z,13.17
2022-07-25T19:27:55.934Z,13.59
2022-07-25T19:29:17.568Z,10.56
2022-07-25T19:30:41.350Z,10.76
2022-07-25T19:32:06.541Z,12.08
2022-07-25T19:33:34.819Z,8.91
2022-07-25T19:34:51.402Z,12.47
2022-07-25T19:36:15.646Z,11.80
2022-07-25T19:39:16.997Z,13.42
2022-07-25T19:40:40.319Z,15.77
2022-07-25T19:43:12.558Z,14.31
2022-07-25T19:44:34.189Z,14.48
2022-07-25T19:45:58.014Z,12.42
2022-07-25T19:47:19.340Z,15.52
2022-07-25T19:48:44.614Z,21.55
2022-07-25T19:50:07.410Z,16.41
2022-07-25T19:52:52.592Z,15.02
2022-07-25T19:54:13.879Z,16.67
2022-07-25T19:55:38.382Z,14.87
2022-07-25T19:57:00.558Z,15.91
2022-07-25T19:58:22.166Z,14.43
2022-07-25T19:59:44.144Z,16.43
2022-07-25T20:01:05.964Z,19.16
2022-07-25T20:02:27.681Z,16.37
2022-07-25T20:03:49.593Z,13.95
2022-07-25T20:05:11.198Z,15.52
2022-07-25T20:06:35.707Z,16.63
2022-07-25T20:07:58.383Z,19.53
2022-07-25T20:10:41.606Z,15.73
2022-07-25T20:12:05.651Z,18.63
2022-07-25T20:13:28.644Z,16.61
2022-07-25T20:14:50.736Z,19.66
2022-07-25T20:16:12.961Z,16.67
2022-07-25T20:17:35.579Z,17.92
2022-07-25T20:20:23.434Z,16.98
2022-07-25T20:21:48.770Z,13.18
2022-07-25T20:23:10.435Z,16.30
2022-07-25T20:24:32.213Z,14.71
2022-07-25T20:25:54.037Z,16.27
2022-07-25T20:27:15.471Z,11.24
2022-07-25T20:28:37.034Z,13.48
2022-07-25T20:29:58.521Z,13.83
2022-07-25T20:31:20.600Z,11.97
2022-07-25T20:32:42.518Z,11.78
2022-07-25T20:34:04.980Z,12.18
2022-07-25T20:35:29.863Z,8.89
2022-07-25T20:36:50.448Z,13.92
2022-07-25T20:38:12.099Z,10.04
2022-07-25T20:39:34.576Z,13.58
2022-07-25T20:40:56.306Z,9.40
2022-07-25T20:42:20.525Z,16.09
2022-07-25T20:43:42.140Z,11.43
2022-07-25T20:45:05.351Z,7.71
2022-07-25T20:46:29.334Z,10.78
2022-07-25T20:47:50.721Z,9.68
2022-07-25T20:49:13.524Z,8.33
2022-07-25T20:50:38.722Z,7.87
2022-07-25T20:51:59.813Z,9.22
2022-07-25T20:54:46.903Z,10.50
2022-07-25T20:56:11.638Z,9.07
2022-07-25T20:57:51.077Z,9.81
2022-07-25T20:59:12.533Z,8.98
2022-07-25T21:00:36.056Z,7.93
2022-07-25T21:01:58.153Z,10.15
2022-07-25T21:03:19.940Z,7.39
2022-07-25T21:04:43.664Z,9.38
2022-07-25T21:06:06.730Z,10.28
2022-07-25T21:08:49.834Z,7.85
2022-07-25T21:10:11.593Z,10.82
2022-07-25T21:11:34.562Z,8.12
2022-07-25T21:12:56.614Z,10.47
2022-07-25T21:14:18.093Z,11.17
2022-07-25T21:15:40.267Z,9.21
2022-07-25T21:17:02.652Z,7.36
2022-07-25T21:18:23.859Z,8.51
2022-07-25T21:19:45.399Z,6.74
2022-07-25T21:21:11.951Z,7.08
2022-07-25T21:22:33.488Z,9.44
2022-07-25T21:23:55.245Z,7.18
2022-07-25T21:25:19.357Z,8.02
2022-07-25T21:26:41.071Z,9.59
2022-07-25T21:28:04.600Z,7.61
2022-07-25T21:29:26.133Z,8.01
2022-07-25T21:30:47.899Z,7.28
2022-07-25T21:32:09.237Z,7.22
2022-07-25T21:33:32.695Z,8.36
2022-07-25T21:34:54.278Z,6.41
2022-07-25T21:36:16.453Z,8.76
2022-07-25T21:37:38.033Z,7.30
2022-07-25T21:38:59.616Z,6.40
2022-07-25T21:40:22.968Z,9.23
2022-07-25T21:41:44.435Z,6.23
2022-07-25T21:43:08.023Z,6.85
2022-07-25T21:44:31.667Z,9.56
2022-07-25T21:45:53.152Z,8.97
2022-07-25T21:47:14.702Z,7.62
2022-07-25T21:48:35.936Z,8.48
2022-07-25T21:49:57.916Z,10.80
2022-07-25T21:51:23.359Z,10.92
2022-07-25T21:52:44.629Z,9.37
2022-07-25T21:54:05.992Z,12.49
2022-07-25T21:55:27.654Z,8.71
2022-07-25T21:56:49.251Z,20.74
2022-07-25T21:59:23.768Z,10.13
2022-07-25T22:00:46.511Z,9.12
2022-07-25T22:02:10.650Z,8.44
2022-07-25T22:03:33.611Z,9.98
2022-07-25T22:06:17.771Z,10.33
2022-07-25T22:07:39.534Z,8.44
2022-07-25T22:09:01.296Z,9.67
2022-07-25T22:10:23.907Z,8.13
2022-07-25T22:11:46.479Z,8.47
2022-07-25T22:13:08.644Z,9.29
2022-07-25T22:14:30.177Z,8.89
2022-07-25T22:15:51.691Z,8.88
2022-07-25T22:17:12.853Z,8.03
2022-07-25T22:18:34.205Z,8.61
2022-07-25T22:19:55.576Z,9.83
2022-07-25T22:21:17.575Z,8.54
2022-07-25T22:22:39.830Z,7.82
2022-07-25T22:24:01.348Z,8.22
2022-07-25T22:25:22.698Z,9.99
2022-07-25T22:26:44.500Z,10.42
2022-07-25T22:28:07.058Z,8.86
2022-07-25T22:29:30.712Z,9.91
2022-07-25T22:30:52.400Z,10.77
2022-07-25T22:32:16.747Z,10.93
2022-07-25T22:33:38.180Z,10.22
2022-07-25T22:34:59.863Z,9.32
2022-07-25T22:36:22.216Z,8.68
2022-07-25T22:37:44.961Z,11.17
2022-07-25T22:39:06.666Z,11.73
2022-07-25T22:40:32.471Z,10.56
2022-07-25T22:41:54.359Z,7.59
2022-07-25T22:43:15.748Z,7.59
2022-07-25T22:44:36.888Z,7.37
2022-07-25T22:46:00.359Z,9.04
2022-07-25T22:47:21.967Z,13.05
2022-07-25T22:48:43.543Z,10.31
2022-07-25T22:50:08.953Z,5.80
2022-07-25T22:51:30.193Z,10.57
2022-07-25T22:52:51.596Z,8.94
2022-07-25T22:54:12.934Z,7.31
2022-07-25T22:57:05.157Z,7.90
2022-07-25T22:58:26.746Z,10.67
2022-07-25T22:59:48.280Z,9.30
2022-07-25T23:01:13.921Z,8.22
2022-07-25T23:02:37.591Z,9.12
2022-07-25T23:03:59.296Z,7.96
2022-07-25T23:05:27.163Z,8.04
2022-07-25T23:06:48.393Z,8.70
2022-07-25T23:08:11.025Z,8.49
2022-07-25T23:11:00.264Z,8.98
2022-07-25T23:12:21.520Z,8.66
2022-07-25T23:13:42.802Z,7.73
2022-07-25T23:15:05.793Z,7.97
2022-07-25T23:16:27.831Z,8.66
2022-07-25T23:17:50.434Z,9.11
2022-07-25T23:20:35.863Z,12.51
2022-07-25T23:21:59.172Z,6.26
2022-07-25T23:23:21.968Z,7.20
2022-07-25T23:24:43.250Z,10.72
2022-07-25T23:26:05.460Z,8.81
2022-07-25T23:27:26.900Z,9.27
2022-07-25T23:28:48.404Z,8.26
2022-07-25T23:30:11.571Z,9.05
2022-07-25T23:31:33.174Z,10.01
2022-07-25T23:32:54.644Z,8.29
2022-07-25T23:34:16.183Z,7.25
2022-07-25T23:35:37.853Z,7.68
2022-07-25T23:36:59.244Z,8.63
2022-07-25T23:38:21.262Z,8.90
2022-07-25T23:39:42.798Z,10.95
2022-07-25T23:41:05.741Z,10.26
2022-07-25T23:42:27.207Z,8.72
2022-07-25T23:43:57.497Z,7.17
2022-07-25T23:45:13.678Z,8.71
2022-07-25T23:46:36.647Z,9.67
2022-07-25T23:47:58.135Z,6.92
2022-07-25T23:49:19.888Z,7.94
2022-07-25T23:50:42.392Z,9.09
2022-07-25T23:52:04.302Z,8.31
2022-07-25T23:53:26.047Z,9.22
2022-07-25T23:54:47.982Z,7.22
2022-07-25T23:56:10.390Z,7.74
2022-07-25T23:57:32.731Z,10.83
2022-07-25T23:58:54.358Z,6.83
